createdAt,value
2023-05-11T00:00:10.855Z,61.70
2023-05-11T00:02:37.652Z,65.00
2023-05-11T00:05:04.674Z,63.10
2023-05-11T00:07:31.502Z,56.90
2023-05-11T00:09:58.149Z,55.10
2023-05-11T00:12:24.849Z,52.90
2023-05-11T00:14:51.545Z,60.50
2023-05-11T00:17:21.326Z,66.70
2023-05-11T00:19:51.189Z,66.60
2023-05-11T00:22:17.892Z,77.10
2023-05-11T00:24:44.530Z,94.40
2023-05-11T00:27:11.296Z,99.90
2023-05-11T00:29:40.599Z,99.50
2023-05-11T00:32:10.227Z,98.50
2023-05-11T00:34:37.459Z,99.90
2023-05-11T00:37:04.319Z,99.90
2023-05-11T00:39:31.065Z,99.90
2023-05-11T00:41:57.864Z,99.90
2023-05-11T00:44:26.572Z,99.90
2023-05-11T00:46:53.280Z,99.90
2023-05-11T00:49:21.481Z,99.90
2023-05-11T00:51:48.138Z,99.90
2023-05-11T00:54:15.788Z,99.90
2023-05-11T00:56:42.733Z,99.90
2023-05-11T00:59:09.544Z,99.90
2023-05-11T01:01:38.595Z,99.90
2023-05-11T01:04:05.872Z,99.90
2023-05-11T01:06:55.739Z,99.90
2023-05-11T01:09:56.612Z,99.90
2023-05-11T01:12:53.056Z,99.90
2023-05-11T01:15:28.897Z,99.90
2023-05-11T01:18:06.925Z,99.90
2023-05-11T01:20:34.239Z,99.90
2023-05-11T01:23:27.184Z,99.90
2023-05-11T01:26:30.698Z,99.90
2023-05-11T01:28:57.266Z,99.90
2023-05-11T01:31:27.110Z,99.90
2023-05-11T01:34:07.521Z,99.90
2023-05-11T01:36:38.953Z,99.90
2023-05-11T01:39:12.991Z,99.90
2023-05-11T01:41:41.962Z,99.90
2023-05-11T01:44:11.858Z,99.90
2023-05-11T01:46:39.996Z,99.90
2023-05-11T01:49:07.540Z,99.90
2023-05-11T01:51:39.707Z,99.90
2023-05-11T01:54:08.595Z,99.90
2023-05-11T01:56:37.670Z,99.90
2023-05-11T01:59:05.440Z,99.90
2023-05-11T02:01:35.709Z,99.90
2023-05-11T02:04:04.840Z,99.90
2023-05-11T02:06:34.187Z,99.90
2023-05-11T02:09:01.866Z,99.90
2023-05-11T02:11:30.331Z,99.90
2023-05-11T02:13:58.730Z,99.90
2023-05-11T02:16:28.170Z,99.90
2023-05-11T02:18:56.943Z,99.90
2023-05-11T02:21:25.974Z,99.90
2023-05-11T02:23:54.140Z,99.90
2023-05-11T02:26:21.891Z,99.90
2023-05-11T02:28:48.571Z,99.90
2023-05-11T02:31:25.318Z,99.90
2023-05-11T02:33:54.759Z,99.90
2023-05-11T02:36:23.696Z,99.90
2023-05-11T02:38:54.434Z,99.90
2023-05-11T02:41:30.558Z,99.90
2023-05-11T02:44:01.319Z,99.90
2023-05-11T02:46:33.481Z,99.90
2023-05-11T02:49:03.780Z,99.90
2023-05-11T02:51:39.306Z,99.90
2023-05-11T02:54:10.831Z,99.90
2023-05-11T02:56:44.817Z,99.90
2023-05-11T02:59:12.415Z,99.90
2023-05-11T03:01:43.065Z,99.90
2023-05-11T03:04:13.253Z,99.90
2023-05-11T03:06:42.231Z,99.90
2023-05-11T03:09:10.326Z,99.90
2023-05-11T03:11:37.850Z,99.90
2023-05-11T03:14:08.140Z,99.90
2023-05-11T03:16:39.832Z,99.90
2023-05-11T03:19:08.490Z,99.90
2023-05-11T03:21:38.289Z,99.90
2023-05-11T03:24:10.366Z,99.90
2023-05-11T03:26:37.761Z,99.90
2023-05-11T03:29:05.286Z,99.90
2023-05-11T03:31:32.026Z,99.90
2023-05-11T03:33:58.883Z,99.90
2023-05-11T03:36:27.137Z,99.90
2023-05-11T03:38:57.596Z,99.90
2023-05-11T03:41:26.602Z,99.90
2023-05-11T03:43:58.409Z,99.90
2023-05-11T03:46:26.720Z,99.90
2023-05-11T03:48:54.387Z,99.90
2023-05-11T03:51:21.926Z,99.90
2023-05-11T03:53:48.676Z,99.90
2023-05-11T03:56:18.349Z,99.90
2023-05-11T03:58:45.385Z,99.90
2023-05-11T04:01:13.367Z,99.90
2023-05-11T04:03:53.344Z,99.90
2023-05-11T04:06:20.481Z,99.90
2023-05-11T04:08:47.283Z,99.90
2023-05-11T04:11:13.967Z,99.90
2023-05-11T04:13:40.630Z,99.90
2023-05-11T04:16:07.724Z,99.90
2023-05-11T04:18:34.525Z,99.90
2023-05-11T04:21:01.406Z,99.90
2023-05-11T04:23:28.078Z,99.90
2023-05-11T04:25:58.315Z,99.90
2023-05-11T04:28:27.908Z,99.90
2023-05-11T04:30:56.387Z,99.90
2023-05-11T04:33:23.920Z,99.90
2023-05-11T04:35:54.876Z,99.90
2023-05-11T04:38:22.580Z,99.90
2023-05-11T04:40:50.853Z,99.90
2023-05-11T04:43:18.174Z,99.90
2023-05-11T04:45:49.326Z,99.90
2023-05-11T04:48:19.517Z,99.90
2023-05-11T04:50:47.463Z,99.90
2023-05-11T04:53:14.153Z,99.90
2023-05-11T04:55:40.964Z,99.90
2023-05-11T04:58:07.686Z,99.90
2023-05-11T05:00:34.454Z,99.90
2023-05-11T05:03:01.408Z,99.90
2023-05-11T05:05:28.274Z,99.90
2023-05-11T05:07:54.928Z,99.90
2023-05-11T05:10:22.406Z,99.90
2023-05-11T05:12:49.239Z,99.90
2023-05-11T05:15:15.954Z,99.90
2023-05-11T05:17:43.221Z,83.30
2023-05-11T05:20:15.648Z,25.10
2023-05-11T05:22:42.391Z,7.10
2023-05-11T05:25:09.397Z,1.00
2023-05-11T05:27:36.018Z,1.00
2023-05-11T05:30:02.723Z,1.00
2023-05-11T05:32:29.425Z,1.00
2023-05-11T05:34:56.171Z,1.00
2023-05-11T05:37:22.986Z,1.00
2023-05-11T05:39:49.649Z,1.00
2023-05-11T05:42:16.417Z,1.00
2023-05-11T05:44:43.125Z,1.00
2023-05-11T05:47:09.763Z,1.00
2023-05-11T05:49:36.417Z,99.90
2023-05-11T05:52:03.095Z,99.90
2023-05-11T05:54:29.717Z,99.90
2023-05-11T05:56:56.391Z,99.90
2023-05-11T05:59:24.342Z,99.90
2023-05-11T06:01:51.495Z,99.90
2023-05-11T06:04:18.313Z,99.90
2023-05-11T06:06:46.149Z,99.90
2023-05-11T06:09:15.906Z,91.70
2023-05-11T06:11:42.596Z,1.00
2023-05-11T06:14:11.568Z,1.00
2023-05-11T06:16:38.399Z,1.00
2023-05-11T06:19:11.419Z,1.00
2023-05-11T06:21:38.176Z,1.00
2023-05-11T06:24:05.204Z,1.00
2023-05-11T06:26:31.874Z,99.90
2023-05-11T06:28:58.509Z,99.90
2023-05-11T06:31:25.293Z,99.90
2023-05-11T06:33:52.190Z,99.90
2023-05-11T06:36:18.837Z,99.90
2023-05-11T06:38:47.537Z,96.70
2023-05-11T06:41:14.326Z,99.90
2023-05-11T06:43:40.990Z,99.90
2023-05-11T06:46:08.103Z,1.00
2023-05-11T06:48:34.776Z,99.90
2023-05-11T06:51:01.550Z,1.00
2023-05-11T06:53:28.218Z,1.00
2023-05-11T06:55:56.137Z,1.00
2023-05-11T06:58:22.952Z,1.00
2023-05-11T07:00:49.834Z,99.90
2023-05-11T07:03:22.468Z,1.00
2023-05-11T07:05:49.100Z,18.40
2023-05-11T07:08:15.741Z,99.90
2023-05-11T07:10:43.130Z,1.00
2023-05-11T07:13:09.886Z,99.90
2023-05-11T07:15:36.576Z,99.90
2023-05-11T07:18:03.677Z,99.90
2023-05-11T07:20:30.363Z,1.00
2023-05-11T07:22:59.202Z,1.00
2023-05-11T07:25:26.106Z,1.00
2023-05-11T07:27:52.850Z,1.00
2023-05-11T07:30:20.093Z,99.90
2023-05-11T07:32:47.266Z,99.90
2023-05-11T07:35:15.132Z,1.00
2023-05-11T07:37:42.328Z,99.90
2023-05-11T07:40:09.381Z,99.90
2023-05-11T07:42:39.308Z,99.90
2023-05-11T07:45:06.854Z,1.00
2023-05-11T07:47:36.037Z,99.90
2023-05-11T07:50:03.724Z,1.00
2023-05-11T07:52:30.432Z,1.00
2023-05-11T07:54:57.147Z,99.90
2023-05-11T07:57:23.830Z,1.00
2023-05-11T07:59:51.164Z,27.90
2023-05-11T08:02:21.687Z,99.90
2023-05-11T08:04:48.428Z,99.90
2023-05-11T08:07:15.206Z,99.90
2023-05-11T08:09:42.645Z,11.20
2023-05-11T08:12:09.706Z,1.00
2023-05-11T08:14:37.611Z,99.90
2023-05-11T08:17:04.382Z,99.90
2023-05-11T08:19:34.152Z,99.90
2023-05-11T08:22:01.353Z,99.90
2023-05-11T08:24:28.008Z,1.00
2023-05-11T08:26:56.725Z,1.00
2023-05-11T08:29:23.492Z,1.00
2023-05-11T08:31:50.394Z,1.00
2023-05-11T08:34:20.156Z,1.00
2023-05-11T08:36:47.651Z,1.00
2023-05-11T08:39:14.433Z,99.90
2023-05-11T08:41:44.125Z,99.90
2023-05-11T08:44:11.503Z,99.90
2023-05-11T08:46:43.747Z,99.90
2023-05-11T08:49:10.649Z,99.90
2023-05-11T08:51:37.453Z,99.90
2023-05-11T08:54:04.415Z,99.90
2023-05-11T08:56:31.956Z,99.90
2023-05-11T08:58:58.999Z,99.90
2023-05-11T09:01:29.385Z,1.00
2023-05-11T09:03:58.400Z,1.00
2023-05-11T09:06:28.728Z,99.90
2023-05-11T09:08:55.566Z,99.90
2023-05-11T09:11:25.431Z,99.90
2023-05-11T09:13:52.450Z,99.90
2023-05-11T09:16:36.058Z,99.90
2023-05-11T09:19:07.501Z,99.90
2023-05-11T09:21:38.513Z,99.90
2023-05-11T09:24:07.680Z,99.90
2023-05-11T09:26:34.348Z,99.90
2023-05-11T09:29:03.394Z,99.90
2023-05-11T09:31:40.439Z,99.90
2023-05-11T09:34:19.047Z,99.90
2023-05-11T09:36:48.325Z,99.90
2023-05-11T09:39:16.678Z,99.90
2023-05-11T09:41:46.842Z,99.90
2023-05-11T09:44:15.481Z,99.90
2023-05-11T09:46:44.685Z,99.90
2023-05-11T09:49:12.288Z,99.90
2023-05-11T09:51:40.683Z,99.90
2023-05-11T09:54:26.163Z,99.90
2023-05-11T09:56:56.606Z,99.90
2023-05-11T09:59:40.751Z,99.90
2023-05-11T10:02:24.753Z,99.90
2023-05-11T10:04:53.063Z,99.90
2023-05-11T10:07:33.949Z,99.90
2023-05-11T10:10:08.292Z,99.90
2023-05-11T10:12:38.958Z,99.90
2023-05-11T10:15:08.779Z,99.90
2023-05-11T10:17:37.123Z,99.90
2023-05-11T10:20:06.167Z,99.90
2023-05-11T10:22:37.018Z,99.90
2023-05-11T10:25:06.556Z,99.90
2023-05-11T10:27:34.886Z,99.90
2023-05-11T10:30:04.180Z,99.90
2023-05-11T10:32:35.459Z,99.90
2023-05-11T10:35:05.042Z,99.90
2023-05-11T10:37:33.256Z,99.90
2023-05-11T10:40:00.372Z,99.90
2023-05-11T10:42:42.611Z,99.90
2023-05-11T10:45:24.621Z,99.90
2023-05-11T10:47:54.261Z,99.90
2023-05-11T10:50:58.048Z,99.90
2023-05-11T10:53:46.793Z,99.90
2023-05-11T10:56:41.465Z,99.90
2023-05-11T10:59:37.050Z,99.90
2023-05-11T11:02:04.500Z,99.90
2023-05-11T11:04:49.557Z,99.90
2023-05-11T11:07:18.651Z,99.90
2023-05-11T11:10:00.750Z,99.90
2023-05-11T11:12:29.687Z,99.90
2023-05-11T11:15:02.259Z,99.90
2023-05-11T11:17:35.970Z,99.90
2023-05-11T11:20:06.983Z,99.90
2023-05-11T11:22:41.145Z,99.90
2023-05-11T11:25:12.928Z,99.90
2023-05-11T11:27:45.350Z,99.90
2023-05-11T11:30:17.533Z,99.90
2023-05-11T11:32:46.322Z,99.90
2023-05-11T11:35:41.514Z,99.90
2023-05-11T11:38:09.250Z,99.90
2023-05-11T11:40:57.356Z,99.90
2023-05-11T11:43:26.248Z,99.90
2023-05-11T11:46:00.438Z,99.90
2023-05-11T11:48:35.806Z,99.90
2023-05-11T11:51:10.498Z,99.90
2023-05-11T11:53:37.490Z,99.90
2023-05-11T11:56:05.418Z,99.90
2023-05-11T11:58:46.889Z,99.90
2023-05-11T12:01:18.931Z,99.90
2023-05-11T12:03:52.809Z,99.90
2023-05-11T12:06:25.016Z,99.90
2023-05-11T12:08:59.346Z,99.90
2023-05-11T12:11:29.419Z,99.90
2023-05-11T12:13:56.980Z,99.90
2023-05-11T12:16:25.678Z,1.00
2023-05-11T12:19:00.113Z,99.90
2023-05-11T12:21:32.284Z,99.90
2023-05-11T12:24:05.296Z,99.90
2023-05-11T12:26:33.249Z,99.90
2023-05-11T12:29:19.092Z,99.90
2023-05-11T12:31:47.110Z,99.90
2023-05-11T12:34:16.161Z,99.90
2023-05-11T12:36:46.551Z,99.90
2023-05-11T12:39:29.428Z,99.90
2023-05-11T12:41:56.830Z,1.00
2023-05-11T12:44:25.866Z,1.00
2023-05-11T12:46:53.145Z,1.00
2023-05-11T12:49:26.377Z,1.00
2023-05-11T12:52:13.923Z,1.00
2023-05-11T12:54:54.985Z,99.90
2023-05-11T12:57:29.785Z,37.00
2023-05-11T13:00:14.018Z,1.00
2023-05-11T13:02:50.904Z,3.90
2023-05-11T13:05:19.762Z,1.00
2023-05-11T13:07:48.516Z,1.00
2023-05-11T13:10:15.260Z,1.00
2023-05-11T13:12:52.038Z,99.90
2023-05-11T13:15:20.699Z,1.00
2023-05-11T13:17:48.541Z,96.20
2023-05-11T13:20:18.442Z,99.90
2023-05-11T13:22:46.616Z,99.90
2023-05-11T13:25:18.559Z,99.90
2023-05-11T13:27:45.751Z,99.90
2023-05-11T13:30:12.967Z,99.90
2023-05-11T13:32:42.734Z,99.90
2023-05-11T13:35:09.777Z,99.90
2023-05-11T13:37:36.533Z,99.90
2023-05-11T13:40:03.916Z,99.90
2023-05-11T13:42:30.664Z,1.00
2023-05-11T13:44:57.282Z,1.00
2023-05-11T13:47:24.043Z,1.00
2023-05-11T13:49:50.793Z,99.90
2023-05-11T13:52:17.680Z,99.90
2023-05-11T13:54:44.420Z,1.00
2023-05-11T13:57:13.603Z,1.00
2023-05-11T13:59:40.816Z,1.00
2023-05-11T14:02:07.770Z,1.00
2023-05-11T14:04:34.684Z,1.00
2023-05-11T14:07:02.071Z,1.00
2023-05-11T14:09:30.497Z,1.00
2023-05-11T14:11:57.243Z,1.00
2023-05-11T14:14:23.980Z,1.00
2023-05-11T14:16:50.905Z,1.00
2023-05-11T14:19:17.628Z,4.80
2023-05-11T14:21:44.433Z,10.80
2023-05-11T14:24:12.537Z,1.00
2023-05-11T14:26:41.658Z,1.00
2023-05-11T14:29:08.489Z,1.00
2023-05-11T14:31:36.155Z,1.00
2023-05-11T14:34:04.109Z,1.00
2023-05-11T14:36:31.988Z,1.00
2023-05-11T14:39:01.408Z,99.90
2023-05-11T14:41:30.360Z,99.90
2023-05-11T14:43:56.987Z,99.90
2023-05-11T14:46:26.713Z,1.00
2023-05-11T14:48:55.818Z,99.90
2023-05-11T14:51:22.608Z,99.90
2023-05-11T14:53:49.291Z,1.00
2023-05-11T14:56:16.678Z,99.90
2023-05-11T14:58:43.350Z,99.90
2023-05-11T15:01:09.977Z,89.00
2023-05-11T15:03:37.303Z,1.00
2023-05-11T15:06:04.341Z,99.40
2023-05-11T15:08:32.006Z,1.00
2023-05-11T15:10:59.704Z,1.00
2023-05-11T15:13:26.770Z,99.90
2023-05-11T15:15:55.562Z,99.90
2023-05-11T15:18:22.342Z,1.00
2023-05-11T15:20:51.176Z,99.90
2023-05-11T15:23:17.889Z,1.00
2023-05-11T15:25:45.142Z,99.90
2023-05-11T15:28:12.251Z,1.00
2023-05-11T15:30:42.091Z,99.90
2023-05-11T15:33:12.029Z,1.00
2023-05-11T15:35:38.782Z,99.90
2023-05-11T15:38:06.186Z,1.00
2023-05-11T15:40:33.289Z,99.90
2023-05-11T15:43:00.503Z,59.10
2023-05-11T15:45:27.389Z,93.90
2023-05-11T15:47:54.390Z,99.90
2023-05-11T15:50:21.972Z,1.00
2023-05-11T15:52:49.140Z,1.00
2023-05-11T15:55:17.938Z,1.00
2023-05-11T15:57:44.671Z,1.00
2023-05-11T16:00:12.600Z,99.90
2023-05-11T16:02:41.930Z,99.90
2023-05-11T16:05:09.098Z,1.00
2023-05-11T16:07:35.779Z,99.90
2023-05-11T16:10:02.982Z,99.90
2023-05-11T16:12:32.444Z,1.00
2023-05-11T16:14:59.153Z,99.90
2023-05-11T16:17:26.301Z,99.90
2023-05-11T16:19:53.017Z,99.90
2023-05-11T16:22:22.567Z,99.90
2023-05-11T16:24:49.248Z,1.00
2023-05-11T16:27:15.862Z,1.00
2023-05-11T16:29:44.519Z,1.00
2023-05-11T16:32:11.158Z,1.00
2023-05-11T16:34:37.832Z,1.00
2023-05-11T16:37:04.683Z,1.00
2023-05-11T16:39:31.313Z,1.00
2023-05-11T16:41:58.085Z,1.00
2023-05-11T16:44:24.863Z,1.00
2023-05-11T16:46:54.401Z,1.00
2023-05-11T16:49:21.276Z,99.90
2023-05-11T16:51:48.154Z,1.00
2023-05-11T16:54:14.954Z,1.00
2023-05-11T16:56:41.663Z,1.00
2023-05-11T16:59:10.154Z,1.00
2023-05-11T17:01:37.961Z,1.00
2023-05-11T17:04:05.049Z,1.00
2023-05-11T17:06:32.092Z,1.00
2023-05-11T17:08:58.839Z,1.00
2023-05-11T17:11:25.693Z,1.00
2023-05-11T17:13:52.765Z,1.00
2023-05-11T17:16:19.536Z,1.00
2023-05-11T17:18:46.512Z,1.00
2023-05-11T17:21:13.452Z,1.00
2023-05-11T17:23:40.276Z,1.00
2023-05-11T17:26:10.169Z,1.00
2023-05-11T17:28:38.060Z,1.00
2023-05-11T17:31:10.140Z,1.00
2023-05-11T17:33:37.216Z,1.00
2023-05-11T17:36:05.079Z,1.00
2023-05-11T17:38:32.346Z,1.00
2023-05-11T17:41:04.343Z,1.00
2023-05-11T17:43:35.921Z,2.90
2023-05-11T17:46:04.085Z,17.90
2023-05-11T17:48:31.423Z,18.50
2023-05-11T17:50:58.744Z,35.50
2023-05-11T17:53:25.901Z,74.10
2023-05-11T17:55:53.017Z,95.60
2023-05-11T17:58:19.677Z,99.90
2023-05-11T18:00:48.793Z,99.90
2023-05-11T18:03:16.805Z,99.90
2023-05-11T18:05:48.685Z,99.90
2023-05-11T18:08:15.907Z,99.90
2023-05-11T18:10:42.880Z,99.90
2023-05-11T18:13:09.974Z,99.90
2023-05-11T18:15:36.973Z,99.90
2023-05-11T18:18:03.695Z,99.90
2023-05-11T18:20:30.814Z,99.90
2023-05-11T18:22:59.843Z,99.90
2023-05-11T18:25:27.932Z,99.90
2023-05-11T18:27:54.807Z,99.90
2023-05-11T18:30:24.760Z,99.90
2023-05-11T18:32:51.537Z,99.90
2023-05-11T18:35:18.491Z,99.90
2023-05-11T18:37:45.215Z,99.90
2023-05-11T18:40:12.480Z,99.90
2023-05-11T18:42:39.545Z,99.90
2023-05-11T18:45:08.004Z,99.90
2023-05-11T18:47:36.569Z,99.90
2023-05-11T18:50:04.207Z,99.90
2023-05-11T18:52:30.830Z,99.90
2023-05-11T18:55:00.547Z,99.90
2023-05-11T18:57:27.174Z,99.90
2023-05-11T18:59:53.951Z,99.90
2023-05-11T19:02:20.658Z,99.90
2023-05-11T19:04:47.363Z,99.90
2023-05-11T19:07:14.338Z,99.90
2023-05-11T19:09:41.030Z,99.90
2023-05-11T19:12:08.832Z,99.90
2023-05-11T19:14:38.327Z,99.90
2023-05-11T19:17:05.358Z,99.90
2023-05-11T19:19:32.072Z,99.90
2023-05-11T19:21:59.248Z,99.90
2023-05-11T19:24:26.569Z,99.90
2023-05-11T19:27:05.944Z,99.90
2023-05-11T19:29:34.884Z,99.90
2023-05-11T19:32:01.785Z,99.90
2023-05-11T19:34:28.556Z,99.90
2023-05-11T19:36:55.245Z,99.90
2023-05-11T19:39:21.918Z,99.90
2023-05-11T19:41:48.581Z,99.90
2023-05-11T19:44:15.180Z,99.90
2023-05-11T19:50:29.444Z,99.90
2023-05-11T19:52:56.501Z,99.90
2023-05-11T19:55:23.155Z,99.90
2023-05-11T19:57:52.927Z,99.90
2023-05-11T20:00:22.854Z,99.90
2023-05-11T20:02:49.875Z,99.90
2023-05-11T20:05:16.904Z,99.90
2023-05-11T20:07:43.780Z,99.90
2023-05-11T20:10:11.871Z,99.90
2023-05-11T20:12:38.981Z,99.90
2023-05-11T20:15:09.770Z,99.90
2023-05-11T20:17:39.312Z,99.90
2023-05-11T20:20:09.581Z,99.90
2023-05-11T20:22:37.000Z,99.90
2023-05-11T20:25:09.596Z,99.90
2023-05-11T20:27:45.617Z,99.90
2023-05-11T20:30:12.767Z,99.90
2023-05-11T20:32:39.466Z,99.90
2023-05-11T20:35:09.218Z,99.90
2023-05-11T20:37:35.904Z,99.90
2023-05-11T20:40:03.407Z,99.90
2023-05-11T20:42:30.463Z,99.90
2023-05-11T20:45:01.830Z,99.90
2023-05-11T20:47:28.539Z,99.90
2023-05-11T20:49:55.378Z,99.90
2023-05-11T20:52:22.101Z,99.90
2023-05-11T20:54:49.042Z,99.90
2023-05-11T20:57:19.062Z,99.90
2023-05-11T21:02:16.152Z,99.90
2023-05-11T21:04:43.000Z,99.90
2023-05-11T21:07:09.674Z,99.90
2023-05-11T21:09:36.390Z,99.90
2023-05-11T21:12:03.048Z,99.90
2023-05-11T21:14:29.681Z,99.90
2023-05-11T21:16:56.575Z,99.90
2023-05-11T21:19:23.355Z,99.90
2023-05-11T21:21:50.087Z,99.90
2023-05-11T21:24:17.032Z,99.90
2023-05-11T21:26:47.246Z,99.90
2023-05-11T21:29:15.197Z,99.90
2023-05-11T21:31:42.062Z,99.90
2023-05-11T21:34:09.082Z,99.90
2023-05-11T21:36:36.066Z,99.90
2023-05-11T21:39:04.658Z,99.90
2023-05-11T21:41:31.298Z,99.90
2023-05-11T21:43:58.290Z,99.90
2023-05-11T21:46:24.979Z,99.90
2023-05-11T21:48:51.627Z,99.90
2023-05-11T21:51:20.602Z,99.90
2023-05-11T21:53:47.261Z,99.90
2023-05-11T21:56:14.010Z,99.90
2023-05-11T21:58:40.721Z,99.90
2023-05-11T22:01:08.198Z,99.90
2023-05-11T22:03:35.063Z,99.90
2023-05-11T22:06:01.787Z,99.90
2023-05-11T22:08:28.773Z,99.90
2023-05-11T22:10:55.466Z,99.90
2023-05-11T22:13:22.129Z,99.90
2023-05-11T22:15:48.758Z,99.90
2023-05-11T22:18:15.439Z,99.90
2023-05-11T22:20:42.212Z,99.90
2023-05-11T22:23:08.815Z,99.90
2023-05-11T22:25:35.466Z,99.90
2023-05-11T22:28:02.222Z,99.90
2023-05-11T22:30:31.483Z,99.90
2023-05-11T22:32:58.327Z,99.90
2023-05-11T22:35:25.653Z,99.90
2023-05-11T22:37:52.325Z,99.90
2023-05-11T22:40:19.192Z,99.90
2023-05-11T22:42:46.050Z,99.90
2023-05-11T22:45:12.675Z,99.90
2023-05-11T22:47:39.929Z,99.90
2023-05-11T22:50:11.643Z,99.90
2023-05-11T22:52:46.718Z,99.90
2023-05-11T22:55:13.667Z,99.90
2023-05-11T22:57:40.457Z,99.90
2023-05-11T23:00:10.499Z,99.90
2023-05-11T23:02:38.058Z,99.90
2023-05-11T23:05:05.392Z,99.90
2023-05-11T23:07:32.093Z,99.90
2023-05-11T23:09:58.908Z,99.90
2023-05-11T23:12:25.579Z,99.90
2023-05-11T23:14:52.362Z,99.90
2023-05-11T23:17:19.377Z,99.90
2023-05-11T23:19:46.119Z,99.90
2023-05-11T23:22:12.858Z,99.90
2023-05-11T23:24:39.630Z,99.90
2023-05-11T23:27:06.325Z,99.90
2023-05-11T23:29:33.066Z,99.90
2023-05-11T23:31:59.719Z,99.90
2023-05-11T23:34:26.382Z,99.90
2023-05-11T23:36:53.730Z,99.90
2023-05-11T23:39:20.455Z,99.90
2023-05-11T23:41:47.100Z,99.90
2023-05-11T23:44:13.697Z,99.90
2023-05-11T23:46:40.402Z,99.90
2023-05-11T23:49:07.695Z,99.90
2023-05-11T23:51:34.370Z,99.90
2023-05-11T23:54:01.368Z,99.90
2023-05-11T23:56:28.049Z,99.90
2023-05-11T23:58:54.753Z,99.90
